Time;durP1;ratioP1;P1;durP2;ratioP2;P2;SDS_P1;SDS_P2;PMS_P1;PMS_P2;Temp;Humidity;BMP_temperature;BMP_pressure;BME280_temperature;BME280_humidity;BME280_pressure;Samples;Min_cycle;Max_cycle;Signal;HPM_P1;HPM_P2
2021/03/14 00:00:44;;;;;;;18.23;3.17;;;0.20;99.90;;;;;;5012162;28;20231;-62
2021/03/14 00:03:13;;;;;;;8.90;2.70;;;0.10;99.90;;;;;;5011962;28;20200;-61
2021/03/14 00:05:42;;;;;;;36.47;3.40;;;0.20;99.90;;;;;;5011847;28;20652;-62
2021/03/14 00:08:09;;;;;;;10.10;2.97;;;0.20;99.90;;;;;;4996641;28;20707;-61
2021/03/14 00:10:39;;;;;;;13.83;3.53;;;0.20;99.90;;;;;;5012136;28;20193;-61
2021/03/14 00:13:05;;;;;;;18.70;3.43;;;0.20;99.90;;;;;;5011788;28;20280;-61
2021/03/14 00:15:33;;;;;;;30.93;3.80;;;0.20;99.90;;;;;;5011701;28;20244;-60
2021/03/14 00:17:59;;;;;;;61.30;4.40;;;0.20;99.90;;;;;;5011810;28;20231;-61
2021/03/14 00:20:26;;;;;;;35.83;3.77;;;0.10;99.90;;;;;;5011572;28;20220;-62
2021/03/14 00:22:52;;;;;;;11.43;3.00;;;0.20;99.90;;;;;;5011658;28;20232;-60
2021/03/14 00:25:19;;;;;;;20.70;4.07;;;0.20;99.90;;;;;;5011666;28;20327;-60
2021/03/14 00:27:45;;;;;;;45.03;4.37;;;0.20;99.90;;;;;;5011295;28;20220;-60
2021/03/14 00:30:14;;;;;;;35.93;4.93;;;0.20;99.90;;;;;;5011159;28;20243;-60
2021/03/14 00:32:42;;;;;;;40.27;6.10;;;0.10;99.90;;;;;;5011328;28;20222;-61
2021/03/14 00:35:10;;;;;;;66.60;6.80;;;0.10;99.90;;;;;;5011590;28;20216;-62
2021/03/14 00:37:37;;;;;;;38.13;5.63;;;0.20;99.90;;;;;;5011107;28;20207;-61
2021/03/14 00:40:05;;;;;;;27.33;6.37;;;0.20;99.90;;;;;;5011483;28;20280;-61
2021/03/14 00:42:31;;;;;;;20.43;5.17;;;0.20;99.90;;;;;;5010903;28;20239;-60
2021/03/14 00:44:58;;;;;;;21.53;5.50;;;0.20;99.90;;;;;;5011586;28;20223;-60
2021/03/14 00:47:24;;;;;;;35.67;4.67;;;0.20;99.90;;;;;;5011178;28;20201;-60
2021/03/14 00:49:51;;;;;;;25.83;4.53;;;0.10;99.90;;;;;;5010888;28;20295;-61
2021/03/14 00:52:18;;;;;;;27.93;4.17;;;0.10;99.90;;;;;;5011069;28;20629;-60
2021/03/14 00:54:45;;;;;;;26.00;3.60;;;0.00;99.90;;;;;;5011340;28;20240;-60
2021/03/14 00:57:11;;;;;;;22.37;3.47;;;0.00;99.90;;;;;;5011458;28;20220;-61
2021/03/14 00:59:38;;;;;;;29.90;3.60;;;-0.10;99.90;;;;;;5012640;28;20224;-61
2021/03/14 01:02:04;;;;;;;23.03;3.27;;;-0.10;99.90;;;;;;5015355;28;20313;-60
2021/03/14 01:04:31;;;;;;;16.37;3.20;;;-0.10;99.90;;;;;;5014956;28;20660;-60
2021/03/14 01:06:58;;;;;;;21.67;3.33;;;-0.10;99.90;;;;;;5014816;28;20567;-61
2021/03/14 01:09:24;;;;;;;30.77;4.10;;;-0.10;99.90;;;;;;5014806;28;20641;-61
2021/03/14 01:11:51;;;;;;;30.73;3.47;;;-0.20;99.90;;;;;;5014816;28;20287;-60
2021/03/14 01:14:17;;;;;;;34.63;3.90;;;-0.30;99.90;;;;;;5014508;28;20625;-61
2021/03/14 01:16:44;;;;;;;43.87;4.60;;;-0.30;99.90;;;;;;5014718;28;20272;-59
2021/03/14 01:19:10;;;;;;;32.73;4.50;;;-0.40;99.90;;;;;;5015129;28;20687;-62
2021/03/14 01:21:37;;;;;;;25.93;3.90;;;-0.40;99.90;;;;;;5014804;28;20200;-60
2021/03/14 01:24:05;;;;;;;36.00;5.20;;;-0.40;99.90;;;;;;5014564;28;20641;-61
2021/03/14 01:26:31;;;;;;;19.57;4.80;;;-0.40;99.90;;;;;;5015098;28;20620;-60
2021/03/14 01:28:58;;;;;;;27.13;3.93;;;-0.40;99.90;;;;;;5014386;28;20228;-61
2021/03/14 01:31:24;;;;;;;20.67;3.97;;;-0.30;99.90;;;;;;5014536;28;20617;-60
2021/03/14 01:33:50;;;;;;;35.00;4.03;;;-0.30;99.90;;;;;;5014783;28;20312;-60
2021/03/14 01:36:18;;;;;;;32.97;3.60;;;-0.40;99.90;;;;;;5014185;28;20311;-61
2021/03/14 01:38:44;;;;;;;24.10;3.90;;;-0.50;99.90;;;;;;5014733;28;20280;-60
2021/03/14 01:41:12;;;;;;;27.70;3.87;;;-0.50;99.90;;;;;;5004664;28;20193;-61
2021/03/14 01:43:38;;;;;;;28.13;3.90;;;-0.50;99.90;;;;;;5014713;28;20276;-61
2021/03/14 01:46:05;;;;;;;48.73;4.70;;;-0.40;99.90;;;;;;5014123;28;20236;-62
2021/03/14 01:48:34;;;;;;;16.50;3.90;;;-0.50;99.90;;;;;;5014770;28;20549;-60
2021/03/14 01:51:01;;;;;;;20.27;3.83;;;-0.50;99.90;;;;;;5014531;28;20227;-60
2021/03/14 01:53:28;;;;;;;30.67;4.60;;;-0.40;99.90;;;;;;5014495;28;20537;-60
2021/03/14 01:55:55;;;;;;;16.40;3.93;;;-0.40;99.90;;;;;;5014187;28;20314;-61
2021/03/14 01:58:23;;;;;;;43.37;4.57;;;-0.40;99.90;;;;;;5013695;28;20280;-61
2021/03/14 02:00:50;;;;;;;32.60;4.10;;;-0.50;99.90;;;;;;5013538;28;20202;-61
2021/03/14 02:03:17;;;;;;;52.33;5.30;;;-0.50;99.90;;;;;;5014316;28;20193;-61
2021/03/14 02:05:44;;;;;;;30.10;4.03;;;-0.50;99.90;;;;;;5014061;28;20233;-60
2021/03/14 02:08:10;;;;;;;11.13;3.83;;;-0.50;99.90;;;;;;5013823;28;20272;-61
2021/03/14 02:10:37;;;;;;;12.17;3.43;;;-0.50;99.90;;;;;;5012672;28;20323;-61
2021/03/14 02:13:08;;;;;;;8.67;3.70;;;-0.40;99.90;;;;;;5013856;28;20287;-61
2021/03/14 02:15:40;;;;;;;24.00;4.43;;;-0.50;99.90;;;;;;5013777;28;20588;-61
2021/03/14 02:18:08;;;;;;;13.03;3.87;;;-0.50;99.90;;;;;;5013768;28;20268;-61
2021/03/14 02:20:37;;;;;;;18.87;4.30;;;-0.40;99.90;;;;;;5013065;28;20220;-61
2021/03/14 02:23:13;;;;;;;16.47;4.07;;;-0.30;99.90;;;;;;5013663;28;20204;-61
2021/03/14 02:25:46;;;;;;;19.17;4.10;;;-0.30;99.90;;;;;;5013441;28;20323;-61
2021/03/14 02:28:15;;;;;;;23.17;4.10;;;-0.30;99.90;;;;;;5013097;28;20536;-61
2021/03/14 02:30:43;;;;;;;26.20;3.53;;;-0.40;99.90;;;;;;5013579;28;20203;-61
2021/03/14 02:33:12;;;;;;;26.17;3.93;;;-0.40;99.90;;;;;;5013475;28;20649;-61
2021/03/14 02:35:39;;;;;;;20.80;4.17;;;-0.40;99.90;;;;;;5013123;28;20339;-61
2021/03/14 02:38:06;;;;;;;26.00;4.77;;;-0.50;99.90;;;;;;5013234;28;20281;-60
2021/03/14 02:40:34;;;;;;;13.87;4.13;;;-0.50;99.90;;;;;;5013214;28;20228;-61
2021/03/14 02:43:02;;;;;;;23.77;4.80;;;-0.50;99.90;;;;;;5013444;28;20196;-61
2021/03/14 02:45:29;;;;;;;17.77;4.97;;;-0.50;99.90;;;;;;5013057;28;20224;-61
2021/03/14 02:47:56;;;;;;;21.77;5.53;;;-0.50;99.90;;;;;;5012983;28;20384;-61
2021/03/14 02:50:24;;;;;;;15.73;5.47;;;-0.50;99.90;;;;;;5012968;28;20651;-61
2021/03/14 02:52:51;;;;;;;10.07;4.90;;;-0.50;99.90;;;;;;5012464;28;20585;-61
2021/03/14 02:55:22;;;;;;;13.83;6.10;;;-0.40;99.90;;;;;;5012817;28;20236;-60
2021/03/14 02:57:50;;;;;;;20.37;6.03;;;-0.40;99.90;;;;;;5013222;28;20248;-61
2021/03/14 03:00:20;;;;;;;25.07;6.37;;;-0.40;99.90;;;;;;5012386;28;20224;-61
2021/03/14 03:02:52;;;;;;;15.23;5.83;;;-0.40;99.90;;;;;;5013029;28;20185;-61
2021/03/14 03:05:20;;;;;;;29.10;6.87;;;-0.40;99.90;;;;;;5012359;28;20221;-60
2021/03/14 03:07:47;;;;;;;23.13;6.97;;;-0.40;99.90;;;;;;5013049;28;20240;-61
2021/03/14 03:10:15;;;;;;;20.10;6.50;;;-0.30;99.90;;;;;;5012977;28;20250;-60
2021/03/14 03:12:44;;;;;;;18.70;6.90;;;-0.30;99.90;;;;;;5012665;28;20193;-61
2021/03/14 03:15:12;;;;;;;15.90;6.53;;;-0.30;99.90;;;;;;5012287;28;20304;-60
2021/03/14 03:17:39;;;;;;;14.23;5.70;;;-0.30;99.90;;;;;;5012500;28;20371;-61
2021/03/14 03:20:09;;;;;;;11.67;5.10;;;-0.30;99.90;;;;;;5012920;28;20615;-61
2021/03/14 03:22:35;;;;;;;14.13;5.53;;;-0.30;99.90;;;;;;5011370;28;20276;-60
2021/03/14 03:25:02;;;;;;;8.87;4.87;;;-0.30;99.90;;;;;;5012327;28;20685;-60
2021/03/14 03:27:28;;;;;;;12.77;4.23;;;-0.20;99.90;;;;;;5012472;28;20315;-60
2021/03/14 03:29:55;;;;;;;8.10;4.40;;;-0.30;99.90;;;;;;5012061;28;20664;-60
2021/03/14 03:32:21;;;;;;;10.00;4.30;;;-0.20;99.90;;;;;;5011773;28;20319;-60
2021/03/14 03:34:48;;;;;;;8.30;4.07;;;-0.20;99.90;;;;;;5011746;28;20643;-60
2021/03/14 03:37:15;;;;;;;7.37;4.00;;;-0.20;99.90;;;;;;5011936;28;20225;-60
2021/03/14 03:39:42;;;;;;;9.17;3.47;;;-0.20;99.90;;;;;;5011467;28;20276;-59
2021/03/14 03:42:13;;;;;;;8.90;3.87;;;-0.10;99.90;;;;;;5011491;28;20239;-60
2021/03/14 03:44:40;;;;;;;7.50;3.80;;;-0.20;99.90;;;;;;5011781;28;20181;-61
2021/03/14 03:47:10;;;;;;;6.43;3.63;;;-0.10;99.90;;;;;;5012019;28;20220;-61
2021/03/14 03:49:38;;;;;;;6.57;3.83;;;-0.10;99.90;;;;;;5012052;28;20221;-61
2021/03/14 03:52:05;;;;;;;12.37;3.70;;;-0.10;99.90;;;;;;5011698;28;20280;-61
2021/03/14 03:54:35;;;;;;;9.93;3.43;;;-0.10;99.90;;;;;;5011511;28;20645;-61
2021/03/14 03:57:02;;;;;;;6.17;3.37;;;-0.10;99.90;;;;;;5011868;28;20247;-60
2021/03/14 03:59:31;;;;;;;9.20;2.97;;;-0.10;99.90;;;;;;5012449;28;20220;-61
2021/03/14 04:01:58;;;;;;;6.83;2.83;;;-0.10;99.90;;;;;;5011927;28;20185;-61
2021/03/14 04:04:25;;;;;;;4.40;2.57;;;-0.10;99.90;;;;;;5011102;28;20185;-62
2021/03/14 04:06:54;;;;;;;6.30;3.10;;;-0.20;99.90;;;;;;5012111;28;20502;-61
2021/03/14 04:09:21;;;;;;;4.57;2.60;;;-0.10;99.90;;;;;;5010761;28;20246;-61
2021/03/14 04:11:49;;;;;;;4.83;2.90;;;-0.10;99.90;;;;;;5011992;28;20185;-61
2021/03/14 04:14:19;;;;;;;4.20;3.07;;;0.00;99.90;;;;;;5011704;28;20217;-61
2021/03/14 04:16:46;;;;;;;4.07;2.70;;;-0.10;99.90;;;;;;5012130;28;20526;-62
2021/03/14 04:19:16;;;;;;;4.97;3.07;;;0.00;99.90;;;;;;5011477;28;20731;-61
2021/03/14 04:21:43;;;;;;;3.90;2.83;;;0.00;99.90;;;;;;5011598;28;20268;-61
2021/03/14 04:24:12;;;;;;;5.30;2.83;;;0.00;99.90;;;;;;5011537;28;20264;-62
2021/03/14 04:26:41;;;;;;;5.00;2.87;;;0.00;99.90;;;;;;5011432;28;20247;-61
2021/03/14 04:29:10;;;;;;;5.03;3.00;;;0.00;99.90;;;;;;5011882;28;20193;-61
2021/03/14 04:31:40;;;;;;;8.93;3.20;;;0.00;99.90;;;;;;5011886;28;20239;-61
2021/03/14 04:34:08;;;;;;;6.90;3.40;;;0.00;99.90;;;;;;5011125;28;20322;-62
2021/03/14 04:36:35;;;;;;;5.27;3.60;;;0.00;99.90;;;;;;5011278;28;20221;-61
2021/03/14 04:39:02;;;;;;;7.57;4.33;;;0.00;99.90;;;;;;5011638;28;20217;-61
2021/03/14 04:41:31;;;;;;;5.67;3.93;;;0.00;99.90;;;;;;5011530;28;20212;-60
2021/03/14 04:43:58;;;;;;;7.17;4.67;;;0.00;99.90;;;;;;5011715;28;20231;-62
2021/03/14 04:46:26;;;;;;;7.80;3.93;;;0.00;99.90;;;;;;5010798;28;20722;-62
2021/03/14 04:48:54;;;;;;;6.27;3.90;;;0.00;99.90;;;;;;5011716;28;20290;-61
2021/03/14 04:51:23;;;;;;;5.30;3.20;;;0.00;99.90;;;;;;5011155;28;20633;-62
2021/03/14 04:53:50;;;;;;;6.83;3.77;;;0.10;99.90;;;;;;5011349;28;20255;-61
2021/03/14 04:56:17;;;;;;;6.03;3.67;;;0.10;99.90;;;;;;5011119;28;20204;-61
2021/03/14 04:58:45;;;;;;;5.30;3.30;;;0.10;99.90;;;;;;5003415;28;20189;-61
2021/03/14 05:01:13;;;;;;;5.77;3.60;;;0.10;99.90;;;;;;5011330;28;20275;-61
2021/03/14 05:03:43;;;;;;;7.73;4.00;;;0.20;99.90;;;;;;5011410;28;20290;-61
2021/03/14 05:06:10;;;;;;;5.10;3.20;;;0.10;99.90;;;;;;5011285;28;20217;-61
2021/03/14 05:08:37;;;;;;;4.93;3.10;;;0.10;99.90;;;;;;5010773;28;20666;-61
2021/03/14 05:11:05;;;;;;;6.07;3.73;;;0.20;99.90;;;;;;5011317;28;20275;-61
2021/03/14 05:13:33;;;;;;;5.53;3.43;;;0.20;99.90;;;;;;5011091;28;20620;-61
2021/03/14 05:16:00;;;;;;;4.27;3.40;;;0.20;99.90;;;;;;5011581;28;20236;-60
2021/03/14 05:18:27;;;;;;;6.60;3.50;;;0.20;99.90;;;;;;5011174;28;20236;-61
2021/03/14 05:20:55;;;;;;;4.60;3.40;;;0.20;99.90;;;;;;5011567;28;20224;-61
2021/03/14 05:23:21;;;;;;;5.23;3.33;;;0.30;99.90;;;;;;5011307;28;20228;-61
2021/03/14 05:25:49;;;;;;;5.30;3.20;;;0.30;99.90;;;;;;5011220;28;20190;-60
2021/03/14 05:28:20;;;;;;;4.57;3.40;;;0.30;99.90;;;;;;5011369;28;20606;-61
2021/03/14 05:30:46;;;;;;;4.40;3.30;;;0.30;99.90;;;;;;5011297;28;20315;-62
2021/03/14 05:33:13;;;;;;;4.57;3.10;;;0.40;99.90;;;;;;5010889;28;20261;-61
2021/03/14 05:35:40;;;;;;;5.23;2.97;;;0.40;99.90;;;;;;5010506;28;20411;-61
2021/03/14 05:38:07;;;;;;;4.90;3.13;;;0.40;99.90;;;;;;5010926;28;20315;-62
2021/03/14 05:40:33;;;;;;;4.53;3.03;;;0.40;99.90;;;;;;5010746;28;20275;-61
2021/03/14 05:43:00;;;;;;;5.30;2.90;;;0.40;99.90;;;;;;5005532;28;20653;-61
2021/03/14 05:45:27;;;;;;;5.07;3.30;;;0.50;99.90;;;;;;5011316;28;20286;-61
2021/03/14 05:47:53;;;;;;;4.63;3.37;;;0.50;99.90;;;;;;5013728;28;20197;-60
2021/03/14 05:50:22;;;;;;;4.37;2.73;;;0.60;99.90;;;;;;5014612;28;20279;-61
2021/03/14 05:52:50;;;;;;;6.03;3.00;;;0.50;99.90;;;;;;5014385;28;20232;-61
2021/03/14 05:55:19;;;;;;;6.90;2.90;;;0.60;99.90;;;;;;5013988;28;20307;-61
2021/03/14 05:57:48;;;;;;;5.20;3.00;;;0.60;99.90;;;;;;5014047;28;20639;-61
2021/03/14 06:00:23;;;;;;;7.03;3.03;;;0.60;99.90;;;;;;5014209;28;20295;-61
2021/03/14 06:02:51;;;;;;;4.67;3.20;;;0.60;99.90;;;;;;5014233;28;20188;-61
2021/03/14 06:05:19;;;;;;;8.00;2.97;;;0.70;99.90;;;;;;5014394;28;20220;-60
2021/03/14 06:07:46;;;;;;;3.87;3.00;;;0.70;99.90;;;;;;5013646;28;20276;-61
2021/03/14 06:10:14;;;;;;;4.33;2.80;;;0.70;99.90;;;;;;5013141;28;20245;-61
2021/03/14 06:12:43;;;;;;;3.50;2.90;;;0.70;99.90;;;;;;5014008;28;20247;-61
2021/03/14 06:15:10;;;;;;;4.63;2.50;;;0.80;99.90;;;;;;5006605;28;20205;-61
2021/03/14 06:17:37;;;;;;;4.83;2.83;;;0.80;99.90;;;;;;5014046;28;20229;-61
2021/03/14 06:20:05;;;;;;;5.10;2.90;;;0.80;99.90;;;;;;5013667;28;20331;-61
2021/03/14 06:22:31;;;;;;;4.63;2.60;;;0.80;99.90;;;;;;5013962;28;20272;-61
2021/03/14 06:24:57;;;;;;;4.53;2.67;;;0.90;99.90;;;;;;5013509;28;20212;-61
2021/03/14 06:27:32;;;;;;;4.50;2.97;;;0.90;99.90;;;;;;5007170;28;20227;-60
2021/03/14 06:30:00;;;;;;;4.77;2.90;;;0.90;99.90;;;;;;5013590;28;20279;-61
2021/03/14 06:32:27;;;;;;;3.77;2.70;;;1.00;99.90;;;;;;5013466;28;20307;-63
2021/03/14 06:35:09;;;;;;;3.47;2.57;;;1.00;99.90;;;;;;5012142;28;20665;-62
2021/03/14 06:37:35;;;;;;;3.73;2.80;;;1.10;99.90;;;;;;5013663;28;20212;-61
2021/03/14 06:40:08;;;;;;;3.90;2.80;;;1.00;99.90;;;;;;5013256;28;20197;-61
2021/03/14 06:42:36;;;;;;;3.73;2.77;;;1.10;99.90;;;;;;5013671;28;20664;-61
2021/03/14 06:45:06;;;;;;;4.50;2.70;;;1.10;99.90;;;;;;5013586;28;20192;-61
2021/03/14 06:47:44;;;;;;;5.23;3.30;;;1.20;99.90;;;;;;5012093;28;20211;-61
2021/03/14 06:50:17;;;;;;;4.23;2.83;;;1.10;99.90;;;;;;5013390;28;20339;-61
2021/03/14 06:53:06;;;;;;;4.30;2.93;;;1.20;99.90;;;;;;5013291;28;20223;-60
2021/03/14 06:55:32;;;;;;;4.17;2.57;;;1.10;99.90;;;;;;5013258;28;20207;-61
2021/03/14 06:58:19;;;;;;;5.27;2.70;;;1.10;99.90;;;;;;5013090;28;20207;-62
2021/03/14 07:01:09;;;;;;;6.77;3.20;;;1.20;99.90;;;;;;5008435;28;20193;-62
2021/03/14 07:03:36;;;;;;;6.23;3.57;;;1.20;99.90;;;;;;5013393;28;20219;-61
2021/03/14 07:06:17;;;;;;;6.57;3.40;;;1.20;99.90;;;;;;5005845;28;20572;-61
2021/03/14 07:08:44;;;;;;;5.03;3.50;;;1.30;99.90;;;;;;5013069;28;20307;-62
2021/03/14 07:11:12;;;;;;;7.00;3.50;;;1.20;99.90;;;;;;5008155;28;20607;-61
2021/03/14 07:13:40;;;;;;;9.03;3.70;;;1.30;99.90;;;;;;5006163;28;20193;-61
2021/03/14 07:16:07;;;;;;;7.80;3.60;;;1.30;99.90;;;;;;5007446;28;20231;-62
2021/03/14 07:18:35;;;;;;;4.73;3.00;;;1.40;99.90;;;;;;5008440;28;20280;-62
2021/03/14 07:21:02;;;;;;;4.77;3.67;;;1.40;99.90;;;;;;5013296;28;20595;-61
2021/03/14 07:23:32;;;;;;;5.47;3.83;;;1.40;99.90;;;;;;5013242;28;20200;-61
2021/03/14 07:25:59;;;;;;;6.03;3.60;;;1.40;99.90;;;;;;5011962;28;20203;-61
2021/03/14 07:28:26;;;;;;;8.93;3.50;;;1.50;99.90;;;;;;5012808;28;20197;-61
2021/03/14 07:30:54;;;;;;;9.20;3.23;;;1.60;99.90;;;;;;5012149;28;20231;-61
2021/03/14 07:33:21;;;;;;;6.23;3.90;;;1.70;99.90;;;;;;5012580;28;20312;-60
2021/03/14 07:35:49;;;;;;;7.40;3.67;;;1.70;99.90;;;;;;5013018;28;20257;-62
2021/03/14 07:38:15;;;;;;;5.57;3.33;;;1.80;99.90;;;;;;5012968;28;20239;-62
2021/03/14 07:40:42;;;;;;;6.37;3.67;;;1.90;99.90;;;;;;5012502;28;20189;-62
2021/03/14 07:43:09;;;;;;;8.30;3.83;;;1.90;99.90;;;;;;5012425;28;20236;-62
2021/03/14 07:45:37;;;;;;;5.40;3.13;;;2.00;99.90;;;;;;5011985;28;20320;-63
2021/03/14 07:48:06;;;;;;;6.43;3.77;;;1.90;99.90;;;;;;5012137;28;20232;-61
2021/03/14 07:50:38;;;;;;;6.83;3.77;;;1.90;99.90;;;;;;5012776;28;20229;-62
2021/03/14 07:53:09;;;;;;;9.87;3.93;;;2.00;99.90;;;;;;5004843;28;20630;-61
2021/03/14 07:55:36;;;;;;;7.40;3.90;;;2.00;99.90;;;;;;5012598;28;20595;-62
2021/03/14 07:58:04;;;;;;;5.07;3.37;;;2.20;99.90;;;;;;5004504;28;20276;-62
2021/03/14 08:00:32;;;;;;;9.83;3.73;;;2.20;99.90;;;;;;5012675;28;20239;-62
2021/03/14 08:03:00;;;;;;;10.33;4.10;;;2.30;99.90;;;;;;5012219;28;20223;-60
2021/03/14 08:05:46;;;;;;;7.90;3.60;;;2.30;99.90;;;;;;5012661;28;20192;-62
2021/03/14 08:08:46;;;;;;;7.87;3.47;;;2.40;99.90;;;;;;5011476;28;20292;-61
2021/03/14 08:11:26;;;;;;;6.97;3.60;;;2.40;99.90;;;;;;5005483;28;20247;-63
2021/03/14 08:13:53;;;;;;;10.07;3.90;;;2.40;99.90;;;;;;5011302;28;20254;-64
2021/03/14 08:16:19;;;;;;;8.00;4.00;;;2.40;99.90;;;;;;5012426;28;20208;-61
2021/03/14 08:18:48;;;;;;;11.20;3.67;;;2.40;99.90;;;;;;5012135;28;20225;-63
2021/03/14 08:21:37;;;;;;;7.80;4.10;;;2.40;99.90;;;;;;5007555;28;20193;-63
2021/03/14 08:24:05;;;;;;;7.43;4.00;;;2.40;99.90;;;;;;5011955;28;20290;-63
2021/03/14 08:26:33;;;;;;;8.13;3.60;;;2.50;99.90;;;;;;5012095;28;20189;-63
2021/03/14 08:29:00;;;;;;;8.70;3.90;;;2.70;99.90;;;;;;5012324;28;20195;-64
2021/03/14 08:31:41;;;;;;;11.60;4.20;;;2.70;99.90;;;;;;5012352;28;20189;-62
2021/03/14 08:34:09;;;;;;;9.67;3.90;;;2.90;99.90;;;;;;5011998;28;20251;-64
2021/03/14 08:36:38;;;;;;;5.33;3.63;;;3.00;99.90;;;;;;5011849;28;20256;-62
2021/03/14 08:39:06;;;;;;;7.63;4.20;;;3.10;99.90;;;;;;5011888;28;20197;-64
2021/03/14 08:41:40;;;;;;;10.73;4.50;;;3.10;99.90;;;;;;5012333;28;20207;-63
2021/03/14 08:44:13;;;;;;;7.03;3.60;;;3.30;99.90;;;;;;5012386;28;20632;-63
2021/03/14 08:47:07;;;;;;;9.30;3.70;;;3.20;99.90;;;;;;5012440;28;20211;-63
2021/03/14 08:49:39;;;;;;;10.87;3.60;;;3.20;99.90;;;;;;5012276;28;20203;-62
2021/03/14 08:52:07;;;;;;;12.50;3.67;;;3.40;99.90;;;;;;5012107;28;20216;-62
2021/03/14 08:54:36;;;;;;;10.27;3.90;;;3.30;99.90;;;;;;5011954;28;20641;-62
2021/03/14 08:57:05;;;;;;;7.70;3.20;;;3.20;99.90;;;;;;5011962;28;20221;-61
2021/03/14 08:59:32;;;;;;;10.37;3.77;;;3.40;99.90;;;;;;5011936;28;20185;-63
2021/03/14 09:02:01;;;;;;;8.03;3.40;;;3.60;99.90;;;;;;5011625;28;20221;-63
2021/03/14 09:04:30;;;;;;;7.63;3.17;;;3.70;99.90;;;;;;5011604;28;20265;-63
2021/03/14 09:07:05;;;;;;;8.63;3.10;;;3.70;99.90;;;;;;5011722;28;20232;-63
2021/03/14 09:09:31;;;;;;;10.90;3.63;;;4.00;99.90;;;;;;5004863;28;20185;-63
2021/03/14 09:12:04;;;;;;;10.60;3.63;;;4.10;99.90;;;;;;5012283;28;20217;-62
2021/03/14 09:14:35;;;;;;;12.90;3.97;;;4.30;99.90;;;;;;5011528;28;20568;-66
2021/03/14 09:17:05;;;;;;;10.50;4.10;;;4.10;99.90;;;;;;5011772;28;20270;-63
2021/03/14 09:19:34;;;;;;;10.23;4.57;;;4.00;99.90;;;;;;5011763;28;20300;-61
2021/03/14 09:22:03;;;;;;;10.50;3.90;;;4.20;99.90;;;;;;5015490;28;20205;-64
2021/03/14 09:24:40;;;;;;;9.97;3.80;;;4.10;99.90;;;;;;5015323;28;20221;-63
2021/03/14 09:27:13;;;;;;;15.90;4.17;;;4.10;99.90;;;;;;5015577;28;20731;-62
2021/03/14 09:29:52;;;;;;;14.07;3.93;;;4.10;99.90;;;;;;5015437;28;20200;-63
2021/03/14 09:32:30;;;;;;;8.60;3.47;;;4.20;99.90;;;;;;5004830;28;20291;-63
2021/03/14 09:35:24;;;;;;;10.83;3.90;;;4.40;99.90;;;;;;5015698;28;20212;-63
2021/03/14 09:37:53;;;;;;;9.03;3.63;;;4.60;99.90;;;;;;4983976;28;20193;-63
2021/03/14 09:40:26;;;;;;;11.77;3.77;;;4.60;99.90;;;;;;4996224;28;20197;-64
2021/03/14 09:43:04;;;;;;;9.70;3.60;;;4.50;99.90;;;;;;4996005;28;20236;-62
2021/03/14 09:45:32;;;;;;;10.87;4.00;;;4.40;99.90;;;;;;5006936;28;20192;-61
2021/03/14 09:48:05;;;;;;;11.80;4.10;;;4.50;99.90;;;;;;5015794;28;20205;-63
2021/03/14 09:50:34;;;;;;;10.67;4.20;;;4.60;99.90;;;;;;5015522;28;20255;-62
2021/03/14 09:53:02;;;;;;;10.50;3.60;;;4.50;99.90;;;;;;5015469;28;20234;-64
2021/03/14 09:55:31;;;;;;;12.03;4.23;;;4.50;99.90;;;;;;5015760;28;20209;-62
2021/03/14 09:57:58;;;;;;;11.77;4.00;;;4.60;99.90;;;;;;5015095;28;20228;-63
2021/03/14 10:00:28;;;;;;;9.67;3.87;;;4.50;99.90;;;;;;5015691;28;20290;-63
2021/03/14 10:02:55;;;;;;;9.70;3.50;;;4.60;99.90;;;;;;5014898;28;20675;-65
2021/03/14 10:05:21;;;;;;;9.37;3.20;;;4.70;99.90;;;;;;5015465;28;20288;-64
2021/03/14 10:07:52;;;;;;;7.90;3.33;;;4.60;99.90;;;;;;5015656;28;20247;-62
2021/03/14 10:10:19;;;;;;;8.97;3.13;;;4.80;99.90;;;;;;5014992;28;20228;-64
2021/03/14 10:12:47;;;;;;;11.47;4.17;;;4.60;99.90;;;;;;5015052;28;20267;-62
2021/03/14 10:15:17;;;;;;;10.80;3.27;;;4.80;99.90;;;;;;5016056;28;20330;-63
2021/03/14 10:17:45;;;;;;;9.23;3.70;;;4.90;99.90;;;;;;5015230;28;20227;-63
2021/03/14 10:20:13;;;;;;;12.53;4.07;;;4.80;99.90;;;;;;5015129;28;20595;-61
2021/03/14 10:22:40;;;;;;;10.40;3.87;;;4.80;99.90;;;;;;5014618;28;20196;-63
2021/03/14 10:25:22;;;;;;;9.67;3.53;;;4.70;99.90;;;;;;5015007;28;20213;-63
2021/03/14 10:27:49;;;;;;;9.73;3.80;;;4.80;99.90;;;;;;5014888;28;20548;-64
2021/03/14 10:30:20;;;;;;;8.90;3.80;;;4.90;99.90;;;;;;5015007;28;20224;-63
2021/03/14 10:32:47;;;;;;;9.17;3.40;;;4.90;99.90;;;;;;5014183;28;20304;-64
2021/03/14 10:35:14;;;;;;;12.23;4.10;;;4.70;99.90;;;;;;5014329;28;20610;-64
2021/03/14 10:37:42;;;;;;;10.17;3.33;;;4.80;99.90;;;;;;5015104;28;20304;-64
2021/03/14 10:40:11;;;;;;;12.03;3.63;;;5.00;99.90;;;;;;5013035;28;20197;-63
2021/03/14 10:42:40;;;;;;;10.47;3.40;;;5.00;99.90;;;;;;5013480;28;20197;-63
2021/03/14 10:45:10;;;;;;;10.83;3.50;;;5.10;99.90;;;;;;5011768;28;20235;-62
2021/03/14 10:47:38;;;;;;;8.07;3.30;;;5.10;99.90;;;;;;5010229;28;20276;-64
2021/03/14 10:50:15;;;;;;;14.57;3.90;;;5.20;99.90;;;;;;5012393;28;20290;-64
2021/03/14 10:52:41;;;;;;;10.13;4.00;;;5.30;99.90;;;;;;5013251;28;20181;-63
2021/03/14 10:55:29;;;;;;;8.10;2.87;;;5.50;99.90;;;;;;5012582;28;20177;-64
2021/03/14 10:58:08;;;;;;;11.33;3.00;;;5.50;99.90;;;;;;5014019;28;20576;-61
2021/03/14 11:00:36;;;;;;;11.73;3.77;;;5.30;99.90;;;;;;5010831;28;20656;-61
2021/03/14 11:03:12;;;;;;;9.43;3.87;;;5.30;99.90;;;;;;5012785;28;20200;-62
2021/03/14 11:05:39;;;;;;;12.10;3.97;;;5.30;99.90;;;;;;5013276;28;20236;-65
2021/03/14 11:08:06;;;;;;;15.63;3.87;;;5.40;99.90;;;;;;5012956;28;20239;-62
2021/03/14 11:10:33;;;;;;;15.47;4.13;;;5.60;99.90;;;;;;5013647;28;20653;-63
2021/03/14 11:12:59;;;;;;;8.43;3.53;;;5.40;99.90;;;;;;5013592;28;20276;-65
2021/03/14 11:15:28;;;;;;;9.40;3.00;;;5.60;99.90;;;;;;5014298;28;20256;-63
2021/03/14 11:17:57;;;;;;;7.40;3.13;;;5.50;99.90;;;;;;5013929;28;20208;-65
2021/03/14 11:20:26;;;;;;;10.67;3.00;;;5.50;99.90;;;;;;5013812;28;20240;-65
2021/03/14 11:22:54;;;;;;;8.33;3.37;;;5.80;99.90;;;;;;5013634;28;20197;-63
2021/03/14 11:25:21;;;;;;;12.10;2.63;;;5.90;99.90;;;;;;5013921;28;20628;-63
2021/03/14 11:27:48;;;;;;;6.83;3.10;;;5.80;99.90;;;;;;5013975;28;20200;-65
2021/03/14 11:30:16;;;;;;;11.70;3.53;;;5.60;99.90;;;;;;5013659;28;20296;-62
2021/03/14 11:32:43;;;;;;;8.73;3.37;;;5.70;99.90;;;;;;5013926;28;20260;-64
2021/03/14 11:35:11;;;;;;;7.97;3.27;;;5.70;99.90;;;;;;5013488;28;20221;-63
2021/03/14 11:37:38;;;;;;;7.70;2.93;;;5.60;99.90;;;;;;5012925;28;20669;-63
2021/03/14 11:40:07;;;;;;;3.43;2.37;;;5.70;99.90;;;;;;5013384;28;20272;-63
2021/03/14 11:42:35;;;;;;;11.27;3.30;;;5.70;99.90;;;;;;5013674;28;20247;-62
2021/03/14 11:45:02;;;;;;;8.60;2.70;;;5.60;99.90;;;;;;5012185;28;20247;-61
2021/03/14 11:47:28;;;;;;;8.27;2.77;;;5.70;99.90;;;;;;5013595;28;20201;-64
2021/03/14 11:49:55;;;;;;;7.30;3.20;;;5.80;99.90;;;;;;5012368;28;20204;-62
2021/03/14 11:52:22;;;;;;;10.43;2.70;;;5.90;99.90;;;;;;5012094;28;20204;-62
2021/03/14 11:54:49;;;;;;;6.00;2.50;;;5.90;99.90;;;;;;5013368;28;20649;-64
2021/03/14 11:57:15;;;;;;;11.30;3.00;;;6.10;99.90;;;;;;5012217;28;20267;-62
2021/03/14 11:59:42;;;;;;;9.63;2.63;;;6.10;99.90;;;;;;5012858;28;20691;-63
2021/03/14 12:02:09;;;;;;;11.00;2.57;;;6.20;99.90;;;;;;5013044;28;20228;-63
2021/03/14 12:04:35;;;;;;;12.47;3.30;;;6.40;99.90;;;;;;5012896;28;20185;-62
2021/03/14 12:07:02;;;;;;;13.67;3.53;;;6.20;99.90;;;;;;5012979;28;20201;-63
2021/03/14 12:09:29;;;;;;;10.53;3.03;;;6.20;99.90;;;;;;5012933;28;20236;-63
2021/03/14 12:11:58;;;;;;;7.00;2.00;;;6.20;99.90;;;;;;5012688;28;20727;-62
2021/03/14 12:14:30;;;;;;;6.37;2.00;;;6.50;99.90;;;;;;5012631;28;20554;-64
2021/03/14 12:16:57;;;;;;;7.43;2.60;;;6.60;99.90;;;;;;5012783;28;20266;-62
2021/03/14 12:19:23;;;;;;;8.47;2.53;;;6.20;99.90;;;;;;5012713;28;20211;-61
2021/03/14 12:21:49;;;;;;;7.70;2.43;;;6.20;99.90;;;;;;5013219;28;20224;-63
2021/03/14 12:24:16;;;;;;;5.67;2.40;;;6.30;99.90;;;;;;5012594;28;20220;-63
2021/03/14 12:26:42;;;;;;;9.37;2.30;;;6.50;99.90;;;;;;5012817;28;20212;-61
2021/03/14 12:29:12;;;;;;;9.70;2.53;;;6.50;99.90;;;;;;5012662;28;20650;-63
2021/03/14 12:31:38;;;;;;;6.53;2.50;;;6.80;99.90;;;;;;5012415;28;20204;-62
2021/03/14 12:34:05;;;;;;;8.57;2.20;;;6.80;99.90;;;;;;5012895;28;20322;-64
2021/03/14 12:36:31;;;;;;;5.67;2.00;;;6.70;99.90;;;;;;5012492;28;20307;-63
2021/03/14 12:38:57;;;;;;;6.77;2.13;;;6.50;99.90;;;;;;5013020;28;20197;-63
2021/03/14 12:41:24;;;;;;;4.00;1.70;;;6.60;99.90;;;;;;5012458;28;20606;-62
2021/03/14 12:43:50;;;;;;;6.80;1.73;;;6.50;99.90;;;;;;5012432;28;20251;-64
2021/03/14 12:46:17;;;;;;;2.80;1.50;;;6.50;99.90;;;;;;5012347;28;20648;-63
2021/03/14 12:48:44;;;;;;;4.63;1.60;;;6.40;99.90;;;;;;5012528;28;20308;-63
2021/03/14 12:51:10;;;;;;;7.73;1.97;;;6.40;99.90;;;;;;5011935;28;20233;-62
2021/03/14 12:53:37;;;;;;;5.73;1.83;;;6.40;99.90;;;;;;5012390;28;20232;-63
2021/03/14 12:56:04;;;;;;;1.83;1.20;;;6.40;99.90;;;;;;5014451;28;20248;-63
2021/03/14 12:58:30;;;;;;;4.47;1.70;;;6.30;99.90;;;;;;5016069;28;20287;-65